Bicester, United Kingdom
Current Conditions -  °F | °C
As of 10:20 AM on Thursday 18 Dec 2014 (Local Time) from EGTK Reporting Station
Drizzle Drizzle  
Wind Chill: 54°   Ceiling: 1100
Heat Index: 54°   Visibility: 6mi
Dew Point: 52°   Wind: 29mph
Humidity: 94%   Direction: 240°WSW
Pressure: 29.8"   Gusts: NA
Location:  51.9°N, 1.15°W
Report Text: EGTK 181020Z 24025KT 9000 DZ SCT009 BKN011 OVC017 12/11 Q1009
Loading
Personal Weather Stations






























Interactive Weather Map New forecast layout! Learn more

10-Day Weather Forecast

Advertisements
Track Severe Weather on mobile